createdAt,value
2022-09-15T00:00:53.509Z,99278.66
2022-09-15T00:03:56.685Z,99256.19
2022-09-15T00:06:59.425Z,99248.84
2022-09-15T00:10:03.891Z,99219.38
2022-09-15T00:13:06.470Z,99218.72
2022-09-15T00:16:14.789Z,99166.78
2022-09-15T00:19:18.037Z,99172.28
2022-09-15T00:22:21.079Z,99183.94
2022-09-15T00:25:24.032Z,99197.56
2022-09-15T00:28:27.289Z,99263.00
2022-09-15T00:31:30.877Z,99240.38
2022-09-15T00:34:37.446Z,99240.53
2022-09-15T00:37:40.127Z,99259.00
2022-09-15T00:40:54.004Z,99279.66
2022-09-15T00:43:56.980Z,99282.66
2022-09-15T00:47:18.216Z,99300.13
2022-09-15T00:50:22.474Z,99312.12
2022-09-15T00:53:26.103Z,99308.28
2022-09-15T00:56:30.237Z,99311.62
2022-09-15T00:59:37.065Z,99312.09
2022-09-15T01:02:43.560Z,99306.13
2022-09-15T01:05:53.725Z,99302.31
2022-09-15T01:09:17.819Z,99307.28
2022-09-15T01:12:22.458Z,99322.63
2022-09-15T01:15:37.199Z,99324.91
2022-09-15T01:19:01.376Z,99306.91
2022-09-15T01:22:29.041Z,99308.06
2022-09-15T01:26:06.261Z,99305.91
2022-09-15T01:29:38.521Z,99312.22
2022-09-15T01:33:03.311Z,99309.22
2022-09-15T01:36:24.259Z,99305.91
2022-09-15T01:39:35.142Z,99294.59
2022-09-15T01:42:44.660Z,99307.56
2022-09-15T01:45:49.683Z,99303.44
2022-09-15T01:48:55.084Z,99300.09
2022-09-15T01:51:58.089Z,99305.25
2022-09-15T01:55:07.281Z,99308.56
2022-09-15T01:58:10.357Z,99309.06
2022-09-15T02:01:19.952Z,99306.25
2022-09-15T02:04:34.021Z,99314.06
2022-09-15T02:08:06.194Z,99320.53
2022-09-15T02:11:13.019Z,99310.38
2022-09-15T02:14:23.026Z,99315.22
2022-09-15T02:17:29.175Z,99327.50
2022-09-15T02:20:40.724Z,99315.53
2022-09-15T02:23:53.661Z,99326.00
2022-09-15T02:26:57.890Z,99322.81
2022-09-15T02:30:07.917Z,99321.50
2022-09-15T02:33:15.909Z,99319.19
2022-09-15T02:36:20.859Z,99321.19
2022-09-15T02:39:29.238Z,99314.00
2022-09-15T02:42:32.948Z,99319.47
2022-09-15T02:45:36.232Z,99321.34
2022-09-15T02:48:39.371Z,99317.16
2022-09-15T02:51:42.165Z,99315.50
2022-09-15T02:54:45.196Z,99319.81
2022-09-15T02:57:48.282Z,99319.00
2022-09-15T03:00:52.791Z,99318.53
2022-09-15T03:03:55.604Z,99317.50
2022-09-15T03:06:58.888Z,99315.69
2022-09-15T03:10:01.629Z,99316.16
2022-09-15T03:13:08.582Z,99321.34
2022-09-15T03:16:13.011Z,99326.97
2022-09-15T03:19:15.790Z,99322.00
2022-09-15T03:22:18.552Z,99320.31
2022-09-15T03:25:21.957Z,99318.81
2022-09-15T03:28:25.224Z,99324.50
2022-09-15T03:31:28.391Z,99327.81
2022-09-15T03:34:31.150Z,99323.97
2022-09-15T03:37:34.787Z,99316.66
2022-09-15T03:40:37.828Z,99325.78
2022-09-15T03:43:41.500Z,99319.62
2022-09-15T03:46:44.518Z,99311.81
2022-09-15T03:49:47.614Z,99320.97
2022-09-15T03:52:50.517Z,99314.31
2022-09-15T03:55:53.633Z,99320.63
2022-09-15T03:59:57.927Z,99332.72
2022-09-15T04:03:01.390Z,99332.72
2022-09-15T04:06:04.563Z,99338.41
2022-09-15T04:09:07.533Z,99339.41
2022-09-15T04:12:10.917Z,99340.94
2022-09-15T04:15:13.621Z,99337.63
2022-09-15T04:18:16.144Z,99342.09
2022-09-15T04:21:22.805Z,99327.16
2022-09-15T04:24:25.641Z,99339.81
2022-09-15T04:27:28.998Z,99345.78
2022-09-15T04:30:31.865Z,99335.50
2022-09-15T04:33:35.975Z,99342.78
2022-09-15T04:36:38.872Z,99344.47
2022-09-15T04:39:41.414Z,99364.91
2022-09-15T04:42:44.409Z,99366.44
2022-09-15T04:45:46.935Z,99366.44
2022-09-15T04:48:50.056Z,99372.94
2022-09-15T04:51:55.606Z,99362.97
2022-09-15T04:54:58.642Z,99358.16
2022-09-15T04:58:02.484Z,99352.03
2022-09-15T05:01:13.985Z,99343.88
2022-09-15T05:04:17.061Z,99346.72
2022-09-15T05:07:20.477Z,99339.72
2022-09-15T05:10:23.250Z,99359.19
2022-09-15T05:13:26.397Z,99359.19
2022-09-15T05:16:30.105Z,99359.72
2022-09-15T05:19:32.801Z,99370.91
2022-09-15T05:22:40.909Z,99381.19
2022-09-15T05:25:53.732Z,99394.53
2022-09-15T05:28:57.377Z,99402.88
2022-09-15T05:32:00.466Z,99397.88
2022-09-15T05:35:03.806Z,99398.03
2022-09-15T05:38:06.917Z,99418.16
2022-09-15T05:41:17.899Z,99419.00
2022-09-15T05:44:23.854Z,99414.44
2022-09-15T05:47:26.873Z,99396.63
2022-09-15T05:50:33.103Z,99406.28
2022-09-15T05:53:36.508Z,99415.66
2022-09-15T05:56:39.615Z,99410.50
2022-09-15T05:59:43.856Z,99400.88
2022-09-15T06:02:46.873Z,99405.56
2022-09-15T06:05:58.041Z,99404.88
2022-09-15T06:09:01.786Z,99401.22
2022-09-15T06:12:05.763Z,99414.87
2022-09-15T06:15:10.153Z,99415.38
2022-09-15T06:18:13.723Z,99413.41
2022-09-15T06:21:18.949Z,99413.25
2022-09-15T06:24:22.115Z,99418.38
2022-09-15T06:27:25.289Z,99418.56
2022-09-15T06:30:28.099Z,99420.72
2022-09-15T06:33:30.794Z,99433.06
2022-09-15T06:36:36.734Z,99435.41
2022-09-15T06:39:40.052Z,99430.56
2022-09-15T06:42:42.833Z,99437.06
2022-09-15T06:45:47.271Z,99440.91
2022-09-15T06:48:51.324Z,99442.63
2022-09-15T06:51:54.085Z,99439.41
2022-09-15T06:54:57.010Z,99433.41
2022-09-15T06:57:59.771Z,99439.28
2022-09-15T07:01:05.767Z,99452.94
2022-09-15T07:04:09.719Z,99450.44
2022-09-15T07:07:12.622Z,99444.44
2022-09-15T07:10:16.080Z,99445.41
2022-09-15T07:13:19.209Z,99456.59
2022-09-15T07:16:22.790Z,99454.22
2022-09-15T07:19:25.678Z,99463.41
2022-09-15T07:22:28.335Z,99468.03
2022-09-15T07:25:31.460Z,99471.69
2022-09-15T07:28:34.946Z,99468.37
2022-09-15T07:31:38.739Z,99461.09
2022-09-15T07:34:42.069Z,99481.13
2022-09-15T07:37:45.210Z,99470.38
2022-09-15T07:40:49.145Z,99476.50
2022-09-15T07:43:54.971Z,99483.09
2022-09-15T07:46:57.597Z,99476.09
2022-09-15T07:50:00.752Z,99473.00
2022-09-15T07:53:03.994Z,99465.31
2022-09-15T07:56:07.938Z,99467.94
2022-09-15T07:59:10.899Z,99472.94
2022-09-15T08:02:20.035Z,99474.06
2022-09-15T08:05:28.040Z,99479.06
2022-09-15T08:08:30.591Z,99480.56
2022-09-15T08:11:33.810Z,99476.66
2022-09-15T08:14:36.589Z,99480.94
2022-09-15T08:17:39.615Z,99486.34
2022-09-15T08:20:43.073Z,99469.78
2022-09-15T08:23:45.830Z,99491.03
2022-09-15T08:26:49.028Z,99484.88
2022-09-15T08:29:52.055Z,99481.16
2022-09-15T08:32:54.799Z,99494.06
2022-09-15T08:36:08.116Z,99479.84
2022-09-15T08:39:11.208Z,99470.09
2022-09-15T08:42:24.413Z,99466.78
2022-09-15T08:45:32.245Z,99465.59
2022-09-15T08:48:48.781Z,99459.28
2022-09-15T08:51:52.594Z,99460.94
2022-09-15T08:54:58.316Z,99459.75
2022-09-15T08:58:01.149Z,99458.72
2022-09-15T09:01:11.184Z,99458.25
2022-09-15T09:04:23.445Z,99449.59
2022-09-15T09:07:47.477Z,99438.94
2022-09-15T09:11:08.519Z,99445.22
2022-09-15T09:14:22.028Z,99428.22
2022-09-15T09:17:36.889Z,99424.94
2022-09-15T09:21:05.153Z,99424.13
2022-09-15T09:24:16.085Z,99420.75
2022-09-15T09:27:33.831Z,99412.47
2022-09-15T09:30:36.996Z,99407.00
2022-09-15T09:34:26.427Z,99403.19
2022-09-15T09:37:30.051Z,99404.88
2022-09-15T09:40:33.677Z,99416.25
2022-09-15T09:43:37.031Z,99420.47
2022-09-15T09:46:41.201Z,99409.16
2022-09-15T09:49:49.316Z,99412.25
2022-09-15T09:52:52.686Z,99402.75
2022-09-15T09:56:17.990Z,99402.53
2022-09-15T09:59:47.539Z,99401.31
2022-09-15T10:02:50.568Z,99394.28
2022-09-15T10:06:24.142Z,99397.78
2022-09-15T10:09:31.185Z,99378.31
2022-09-15T10:12:41.180Z,99376.44
2022-09-15T10:15:43.912Z,99362.19
2022-09-15T10:18:53.586Z,99357.41
2022-09-15T10:21:59.897Z,99351.16
2022-09-15T10:25:21.128Z,99337.94
2022-09-15T10:28:26.148Z,99329.03
2022-09-15T10:31:32.725Z,99320.78
2022-09-15T10:34:36.228Z,99322.41
2022-09-15T10:37:45.314Z,99312.44
2022-09-15T10:40:54.661Z,99313.72
2022-09-15T10:44:13.084Z,99314.59
2022-09-15T10:47:23.355Z,99320.91
2022-09-15T10:50:31.810Z,99330.16
2022-09-15T10:54:03.864Z,99323.44
2022-09-15T10:57:37.748Z,99318.88
2022-09-15T11:00:47.044Z,99327.59
2022-09-15T11:04:21.388Z,99327.16
2022-09-15T11:07:38.817Z,99324.28
2022-09-15T11:10:53.263Z,99334.00
2022-09-15T11:14:06.226Z,99324.66
2022-09-15T11:17:23.432Z,99319.91
2022-09-15T11:21:01.472Z,99333.81
2022-09-15T11:24:23.978Z,99328.19
2022-09-15T11:28:04.462Z,99332.38
2022-09-15T11:31:19.153Z,99321.31
2022-09-15T11:34:29.967Z,99316.03
2022-09-15T11:37:48.268Z,99312.09
2022-09-15T11:41:08.809Z,99311.03
2022-09-15T11:44:22.856Z,99299.66
2022-09-15T11:47:38.619Z,99289.28
2022-09-15T11:50:46.257Z,99266.78
2022-09-15T11:53:57.988Z,99259.53
2022-09-15T11:57:01.190Z,99246.97
2022-09-15T12:00:13.071Z,99238.50
2022-09-15T12:03:26.373Z,99239.19
2022-09-15T12:06:51.703Z,99252.66
2022-09-15T12:09:56.482Z,99260.50
2022-09-15T12:13:00.545Z,99262.47
2022-09-15T12:16:04.154Z,99279.41
2022-09-15T12:19:18.307Z,99270.22
2022-09-15T12:22:47.613Z,99267.13
2022-09-15T12:26:17.408Z,99257.00
2022-09-15T12:29:26.354Z,99238.63
2022-09-15T12:32:33.350Z,99235.22
2022-09-15T12:35:36.544Z,99233.59
2022-09-15T12:38:39.084Z,99219.22
2022-09-15T12:41:46.323Z,99212.19
2022-09-15T12:44:54.250Z,99219.69
2022-09-15T12:48:06.775Z,99223.84
2022-09-15T12:51:10.885Z,99198.19
2022-09-15T12:54:23.278Z,99171.31
2022-09-15T12:57:36.905Z,99181.41
2022-09-15T13:01:07.136Z,99198.06
2022-09-15T13:04:13.817Z,99227.00
2022-09-15T13:07:22.175Z,99288.56
2022-09-15T13:10:36.571Z,99418.88
2022-09-15T13:14:07.580Z,99272.69
2022-09-15T13:17:17.186Z,99255.94
2022-09-15T13:20:29.721Z,99246.63
2022-09-15T13:23:38.084Z,99259.78
2022-09-15T13:26:44.744Z,99247.22
2022-09-15T13:29:59.856Z,99249.47
2022-09-15T13:33:17.881Z,99264.25
2022-09-15T13:40:20.359Z,99256.78
2022-09-15T13:43:43.588Z,99250.84
2022-09-15T13:46:52.545Z,99264.00
2022-09-15T13:50:13.157Z,99254.63
2022-09-15T13:53:44.597Z,99237.03
2022-09-15T13:56:53.149Z,99255.47
2022-09-15T13:59:55.729Z,99247.59
2022-09-15T14:03:01.605Z,99235.44
2022-09-15T14:06:22.266Z,99238.84
2022-09-15T14:09:30.012Z,99245.78
2022-09-15T14:12:36.651Z,99257.69
2022-09-15T14:15:39.110Z,99236.81
2022-09-15T14:18:44.213Z,99226.41
2022-09-15T14:21:51.340Z,99240.88
2022-09-15T14:24:57.824Z,99234.41
2022-09-15T14:28:00.215Z,99227.22
2022-09-15T14:31:03.237Z,99237.47
2022-09-15T14:34:14.481Z,99251.72
2022-09-15T14:37:35.589Z,99263.31
2022-09-15T14:40:39.974Z,99291.16
2022-09-15T14:43:42.882Z,99287.50
2022-09-15T14:46:45.271Z,99287.03
2022-09-15T14:49:48.558Z,99285.22
2022-09-15T14:53:16.280Z,99260.41
2022-09-15T14:56:24.944Z,99293.75
2022-09-15T14:59:31.950Z,99306.50
2022-09-15T15:03:14.883Z,99309.56
2022-09-15T15:06:30.048Z,99295.41
2022-09-15T15:09:47.055Z,99283.00
2022-09-15T15:12:55.426Z,99285.44
2022-09-15T15:15:58.499Z,99293.97
2022-09-15T15:19:01.588Z,99311.38
2022-09-15T15:22:13.561Z,99297.38
2022-09-15T15:25:20.819Z,99269.72
2022-09-15T15:28:37.450Z,99265.94
2022-09-15T15:31:40.315Z,99266.56
2022-09-15T15:34:50.566Z,99264.41
2022-09-15T15:38:06.809Z,99295.50
2022-09-15T15:41:19.963Z,99310.88
2022-09-15T15:44:22.293Z,99306.19
2022-09-15T15:47:25.675Z,99306.25
2022-09-15T15:50:28.405Z,99306.19
2022-09-15T15:53:31.474Z,99295.72
